Terminal Aerodrome Forecast
Issued by NWS

Home | Current Version | Previous Version | Text Only | Print | Product List | Glossary On
Versions: 1 2 3 4 5 6 7 8 9 10 11 12 13 14 15 16 17
000
FTUS43 KGRB 240520
TAFMTW
TAF
KMTW 240520Z 2406/2506 01004KT P6SM BKN150
     FM241000 02004KT P6SM BKN120
     FM241400 05006KT P6SM BKN100
     FM242000 03008KT P6SM BKN050
     FM250400 36008KT P6SM SCT050=

USA.gov is the U.S. government's official web portal to all federal, state and local government web resources and services.